Time;durP1;ratioP1;P1;durP2;ratioP2;P2;SDS_P1;SDS_P2;PMS_P1;PMS_P2;Temp;Humidity;BMP_temperature;BMP_pressure;BME280_temperature;BME280_humidity;BME280_pressure;Samples;Min_cycle;Max_cycle;Signal;HPM_P1;HPM_P2
2022/04/17 00:01:42;;;;;;;2.53;2.33;;;23.60;50.00;;;;;;5036865;28;20449;-84
2022/04/17 00:04:10;;;;;;;2.30;2.10;;;23.60;50.00;;;;;;5036817;28;20533;-86
2022/04/17 00:06:38;;;;;;;2.10;2.00;;;23.60;50.00;;;;;;5036501;28;20457;-86
2022/04/17 00:09:05;;;;;;;3.17;2.07;;;23.60;50.10;;;;;;5036771;28;20465;-84
2022/04/17 00:11:34;;;;;;;2.50;2.30;;;23.60;50.10;;;;;;5037184;28;20576;-84
2022/04/17 00:14:02;;;;;;;2.27;2.13;;;23.60;49.90;;;;;;5036317;28;20453;-84
2022/04/17 00:16:30;;;;;;;2.30;2.20;;;23.60;49.90;;;;;;5036679;28;20427;-84
2022/04/17 00:18:57;;;;;;;1.83;1.73;;;23.60;49.80;;;;;;5036331;28;20497;-85
2022/04/17 00:21:23;;;;;;;2.87;2.37;;;23.60;50.00;;;;;;5036312;28;20442;-85
2022/04/17 00:23:50;;;;;;;2.23;2.00;;;23.60;49.70;;;;;;5036485;28;20788;-85
2022/04/17 00:26:17;;;;;;;2.30;2.10;;;23.60;49.80;;;;;;5036422;28;20494;-86
2022/04/17 00:28:44;;;;;;;3.43;2.63;;;23.60;49.90;;;;;;5036177;28;20448;-85
2022/04/17 00:31:11;;;;;;;2.60;2.40;;;23.60;49.90;;;;;;5036381;28;20443;-85
2022/04/17 00:33:39;;;;;;;2.20;2.00;;;23.60;50.50;;;;;;5036461;28;20449;-84
2022/04/17 00:36:06;;;;;;;2.40;2.20;;;23.60;49.90;;;;;;5036141;28;20450;-85
2022/04/17 00:38:33;;;;;;;2.30;2.10;;;23.60;50.00;;;;;;5035712;28;20486;-86
2022/04/17 00:40:59;;;;;;;2.43;2.20;;;23.60;49.90;;;;;;5035829;28;20824;-85
2022/04/17 00:43:29;;;;;;;2.30;2.20;;;23.60;50.10;;;;;;5035761;28;20946;-84
2022/04/17 00:45:56;;;;;;;2.87;2.57;;;23.60;50.20;;;;;;5036156;28;20462;-84
2022/04/17 00:48:24;;;;;;;2.07;1.87;;;23.60;50.30;;;;;;5035911;28;20447;-84
2022/04/17 00:50:55;;;;;;;2.70;2.50;;;23.60;50.30;;;;;;5035959;28;20443;-85
2022/04/17 00:53:23;;;;;;;2.37;2.17;;;23.60;50.20;;;;;;5035759;28;20942;-85
2022/04/17 00:55:50;;;;;;;2.10;2.00;;;23.60;50.20;;;;;;5035939;28;20435;-85
2022/04/17 00:58:18;;;;;;;2.37;2.17;;;23.60;50.30;;;;;;5016388;28;20498;-84
2022/04/17 01:00:45;;;;;;;2.20;2.00;;;23.60;50.20;;;;;;5015705;28;20446;-84
2022/04/17 01:03:14;;;;;;;2.53;2.33;;;23.60;50.30;;;;;;5016191;28;20431;-84
2022/04/17 01:05:43;;;;;;;2.33;2.13;;;23.60;50.30;;;;;;5015852;28;20475;-86
2022/04/17 01:08:12;;;;;;;2.77;2.57;;;23.60;50.30;;;;;;4998075;28;20450;-86
2022/04/17 01:10:39;;;;;;;2.30;2.00;;;23.60;50.20;;;;;;5015458;28;20467;-85
2022/04/17 01:13:08;;;;;;;2.20;2.00;;;23.60;50.20;;;;;;5015712;28;20777;-85
2022/04/17 01:15:36;;;;;;;2.30;2.10;;;23.60;50.30;;;;;;5015493;28;20554;-84
2022/04/17 01:18:03;;;;;;;2.17;1.97;;;23.60;50.20;;;;;;5015288;28;20462;-84
2022/04/17 01:20:30;;;;;;;2.30;1.90;;;23.60;50.20;;;;;;5015162;28;20447;-85
2022/04/17 01:28:26;;;;;;;2.50;2.30;;;23.60;50.30;;;;;;5015317;28;20985;-85
2022/04/17 01:30:53;;;;;;;2.50;2.30;;;23.60;50.30;;;;;;5015410;28;20455;-85
2022/04/17 01:33:20;;;;;;;2.40;2.10;;;23.50;50.20;;;;;;5015176;28;20439;-84
2022/04/17 01:35:47;;;;;;;2.50;2.30;;;23.50;50.20;;;;;;5015043;28;20943;-85
2022/04/17 01:38:16;;;;;;;2.17;2.07;;;23.60;50.10;;;;;;5015252;28;20443;-85
2022/04/17 01:40:43;;;;;;;2.30;2.13;;;23.60;50.00;;;;;;5014937;28;20476;-85
2022/04/17 01:43:10;;;;;;;2.23;2.07;;;23.60;50.10;;;;;;5015119;28;20439;-85
2022/04/17 01:45:37;;;;;;;2.73;2.53;;;23.50;49.90;;;;;;5015083;28;20451;-85
2022/04/17 01:48:05;;;;;;;2.47;2.27;;;23.50;50.00;;;;;;5015131;28;20442;-85
2022/04/17 01:50:32;;;;;;;2.37;2.17;;;23.50;50.00;;;;;;5014756;28;20439;-85
2022/04/17 01:53:00;;;;;;;3.03;2.30;;;23.50;50.00;;;;;;4997457;28;20515;-85
2022/04/17 01:55:29;;;;;;;1.73;1.63;;;23.50;50.00;;;;;;5015069;28;20851;-85
2022/04/17 01:57:57;;;;;;;2.20;2.10;;;23.50;50.00;;;;;;5030660;28;20536;-85
2022/04/17 02:00:24;;;;;;;2.30;2.10;;;23.50;50.10;;;;;;5034506;28;20486;-85
2022/04/17 02:02:50;;;;;;;2.30;2.20;;;23.50;50.00;;;;;;5016893;28;20439;-86
2022/04/17 02:05:17;;;;;;;2.20;2.10;;;23.50;50.00;;;;;;5034343;28;20447;-85
2022/04/17 02:07:44;;;;;;;2.40;2.30;;;23.50;50.10;;;;;;5034365;28;20461;-85
2022/04/17 02:10:16;;;;;;;2.60;2.40;;;23.50;50.00;;;;;;5034388;28;20473;-85
2022/04/17 02:12:46;;;;;;;2.33;2.13;;;23.50;50.00;;;;;;5033902;28;20439;-85
2022/04/17 02:15:14;;;;;;;2.67;2.30;;;23.50;50.00;;;;;;5034295;28;20492;-84
2022/04/17 02:17:41;;;;;;;2.63;2.43;;;23.50;50.00;;;;;;5034161;28;20481;-85
2022/04/17 02:20:10;;;;;;;2.30;2.10;;;23.50;50.00;;;;;;5034233;28;21010;-85
2022/04/17 02:22:37;;;;;;;2.03;1.83;;;23.50;50.00;;;;;;5034377;28;20449;-85
2022/04/17 02:25:04;;;;;;;2.00;1.90;;;23.50;49.90;;;;;;5034289;28;20442;-84
2022/04/17 02:27:31;;;;;;;2.07;1.87;;;23.50;50.00;;;;;;5034123;28;20439;-85
2022/04/17 02:29:59;;;;;;;1.87;1.77;;;23.50;50.00;;;;;;5034020;28;20469;-85
2022/04/17 02:32:25;;;;;;;2.27;2.07;;;23.50;49.90;;;;;;5033819;28;20442;-84
2022/04/17 02:34:52;;;;;;;2.30;2.10;;;23.50;49.90;;;;;;5034180;28;20529;-86
2022/04/17 02:37:19;;;;;;;2.40;2.07;;;23.50;49.90;;;;;;5034118;28;20439;-86
2022/04/17 02:39:46;;;;;;;2.57;2.37;;;23.50;50.00;;;;;;5033745;28;20504;-85
2022/04/17 02:42:13;;;;;;;2.73;2.53;;;23.50;49.90;;;;;;5033480;28;20933;-85
2022/04/17 02:44:40;;;;;;;6.13;2.23;;;23.50;49.90;;;;;;5034009;28;20812;-85
2022/04/17 02:49:52;;;;;;;2.63;2.00;;;23.50;50.00;;;;;;5033809;28;20541;-84
2022/04/17 02:52:19;;;;;;;2.00;1.90;;;23.50;50.00;;;;;;5033641;28;20926;-84
2022/04/17 02:54:46;;;;;;;2.43;2.33;;;23.50;50.00;;;;;;5033856;28;20529;-85
2022/04/17 02:57:12;;;;;;;1.83;1.73;;;23.50;49.90;;;;;;5033467;28;20474;-85
2022/04/17 02:59:39;;;;;;;2.07;1.87;;;23.50;50.60;;;;;;5033700;28;20505;-85
2022/04/17 03:07:35;;;;;;;2.27;2.17;;;23.40;50.00;;;;;;5033544;28;20577;-84
2022/04/17 03:10:03;;;;;;;2.67;2.47;;;23.40;49.90;;;;;;5033324;28;20964;-86
2022/04/17 03:12:29;;;;;;;2.47;2.27;;;23.40;49.90;;;;;;5033453;28;20447;-85
2022/04/17 03:14:56;;;;;;;2.17;2.07;;;23.40;49.80;;;;;;5033371;28;20450;-84
2022/04/17 03:17:25;;;;;;;2.47;2.27;;;23.50;50.00;;;;;;5033334;28;20934;-84
2022/04/17 03:19:52;;;;;;;2.30;1.77;;;23.50;50.00;;;;;;5033330;28;20997;-85
2022/04/17 03:22:22;;;;;;;2.50;2.30;;;23.40;50.00;;;;;;5033517;28;20439;-86
2022/04/17 03:24:49;;;;;;;2.40;2.30;;;23.50;50.00;;;;;;5034868;28;20922;-86
2022/04/17 03:27:15;;;;;;;2.80;2.50;;;23.40;49.90;;;;;;5037436;28;20445;-85
2022/04/17 03:29:42;;;;;;;2.43;2.23;;;23.40;49.90;;;;;;5037322;28;20438;-84
2022/04/17 03:32:09;;;;;;;2.30;2.10;;;23.40;50.00;;;;;;5037374;28;20469;-86
2022/04/17 03:34:37;;;;;;;2.80;2.60;;;23.40;49.90;;;;;;5037210;28;20438;-84
2022/04/17 03:37:05;;;;;;;1.80;1.70;;;23.40;49.90;;;;;;5036976;28;20435;-84
2022/04/17 03:39:32;;;;;;;2.10;2.00;;;23.40;49.90;;;;;;5037093;28;20482;-84
2022/04/17 03:41:59;;;;;;;2.47;2.27;;;23.40;49.90;;;;;;5036955;28;20983;-84
2022/04/17 03:44:26;;;;;;;2.40;2.20;;;23.40;50.00;;;;;;5037037;28;20439;-84
2022/04/17 03:46:53;;;;;;;2.50;2.30;;;23.40;49.90;;;;;;5019092;28;20790;-84
2022/04/17 03:49:20;;;;;;;1.73;1.63;;;23.40;49.90;;;;;;5037077;28;20450;-84
2022/04/17 03:51:48;;;;;;;2.43;2.23;;;23.40;50.00;;;;;;5036795;28;20446;-84
2022/04/17 03:54:16;;;;;;;2.23;2.07;;;23.40;50.00;;;;;;5019501;28;20449;-85
2022/04/17 03:56:43;;;;;;;2.23;2.03;;;23.40;49.90;;;;;;5018939;28;20980;-85
2022/04/17 03:59:10;;;;;;;2.80;2.60;;;23.40;50.00;;;;;;5036844;28;20454;-85
2022/04/17 04:01:37;;;;;;;2.60;2.40;;;23.40;49.90;;;;;;5036881;28;20457;-85
2022/04/17 04:04:06;;;;;;;2.47;2.30;;;23.40;49.90;;;;;;5036789;28;20446;-86
2022/04/17 04:06:33;;;;;;;2.33;2.20;;;23.40;49.90;;;;;;5036602;28;20446;-84
2022/04/17 04:09:02;;;;;;;2.50;2.30;;;23.40;49.80;;;;;;5036651;28;20438;-84
2022/04/17 04:11:28;;;;;;;2.77;2.57;;;23.40;49.80;;;;;;5036557;28;20461;-85
2022/04/17 04:13:55;;;;;;;2.23;2.03;;;23.40;49.90;;;;;;5036374;28;20445;-85
2022/04/17 04:16:22;;;;;;;2.50;2.30;;;23.40;49.90;;;;;;5036440;28;20434;-84
2022/04/17 04:18:49;;;;;;;2.40;2.20;;;23.40;49.90;;;;;;5036388;28;20430;-84
2022/04/17 04:21:16;;;;;;;2.50;2.30;;;23.40;49.90;;;;;;5036439;28;20482;-86
2022/04/17 04:23:43;;;;;;;2.10;2.00;;;23.40;49.90;;;;;;5036406;28;20968;-85
2022/04/17 04:26:11;;;;;;;2.50;2.30;;;23.40;49.90;;;;;;5036094;28;20435;-85
2022/04/17 04:28:37;;;;;;;2.50;2.30;;;23.40;49.90;;;;;;5036112;28;20970;-85
2022/04/17 04:31:06;;;;;;;2.17;2.03;;;23.40;49.90;;;;;;5036267;28;20443;-85
2022/04/17 04:33:33;;;;;;;2.77;2.57;;;23.40;49.90;;;;;;5036321;28;20203;-85
2022/04/17 04:36:00;;;;;;;2.47;2.20;;;23.40;49.90;;;;;;5035578;28;20450;-85
2022/04/17 04:38:27;;;;;;;2.13;1.93;;;23.40;49.70;;;;;;5035904;28;20809;-84
2022/04/17 04:40:54;;;;;;;2.40;2.20;;;23.40;49.80;;;;;;5035869;28;20493;-85
2022/04/17 04:43:22;;;;;;;2.47;2.27;;;23.30;49.80;;;;;;5036178;28;20446;-85
2022/04/17 04:51:19;;;;;;;2.47;2.27;;;23.30;49.70;;;;;;5036019;28;20423;-84
2022/04/17 04:53:46;;;;;;;2.23;2.03;;;23.30;49.80;;;;;;5036019;28;20453;-84
2022/04/17 04:56:13;;;;;;;2.30;2.10;;;23.30;49.80;;;;;;5035551;28;20438;-85
2022/04/17 04:58:41;;;;;;;2.30;2.10;;;23.40;49.90;;;;;;5035667;28;20437;-85
2022/04/17 05:01:08;;;;;;;2.50;2.30;;;23.30;49.80;;;;;;5035370;28;20502;-85
2022/04/17 05:03:35;;;;;;;2.57;2.37;;;23.30;49.80;;;;;;5035692;28;20442;-84
2022/04/17 05:06:02;;;;;;;2.53;2.33;;;23.30;49.80;;;;;;5035254;28;20438;-84
2022/04/17 05:08:29;;;;;;;1.90;1.80;;;23.30;49.80;;;;;;5027386;28;20466;-85
2022/04/17 05:10:56;;;;;;;2.50;2.30;;;23.30;49.70;;;;;;5035356;28;20462;-84
2022/04/17 05:13:23;;;;;;;2.30;2.10;;;23.30;49.80;;;;;;5035428;28;20445;-84
2022/04/17 05:15:51;;;;;;;2.37;2.17;;;23.30;49.70;;;;;;5035381;28;20439;-85
2022/04/17 05:18:18;;;;;;;2.20;2.00;;;23.30;49.80;;;;;;5017880;28;20446;-84
2022/04/17 05:20:45;;;;;;;2.40;2.20;;;23.20;49.70;;;;;;5037519;28;20490;-85
2022/04/17 05:23:19;;;;;;;2.63;2.43;;;23.30;49.70;;;;;;5036194;28;20443;-85
2022/04/17 05:25:47;;;;;;;1.97;1.87;;;23.20;49.80;;;;;;5054977;28;20982;-84
2022/04/17 05:28:14;;;;;;;2.43;2.20;;;23.20;49.70;;;;;;5054966;28;20937;-84
2022/04/17 05:30:41;;;;;;;2.77;2.57;;;23.20;49.70;;;;;;5054834;28;20469;-84
2022/04/17 05:33:09;;;;;;;2.37;2.17;;;23.20;49.60;;;;;;5054840;28;20445;-84
2022/04/17 05:35:36;;;;;;;1.90;1.80;;;23.20;49.80;;;;;;5054845;28;20794;-84
2022/04/17 05:38:04;;;;;;;2.20;2.00;;;23.20;49.70;;;;;;5055027;28;20449;-84
2022/04/17 05:40:35;;;;;;;2.33;2.20;;;23.20;49.60;;;;;;5054564;28;20492;-84
2022/04/17 05:43:02;;;;;;;2.20;2.00;;;23.30;49.70;;;;;;5054924;28;20452;-84
2022/04/17 05:45:29;;;;;;;2.70;2.50;;;23.20;49.70;;;;;;5054485;28;20947;-85
2022/04/17 05:47:57;;;;;;;3.10;2.90;;;23.30;49.70;;;;;;5053922;28;20465;-84
2022/04/17 05:50:25;;;;;;;2.53;2.33;;;23.20;49.70;;;;;;5054753;28;20453;-85
2022/04/17 05:52:52;;;;;;;2.40;2.20;;;23.30;49.70;;;;;;5054436;28;20442;-85
2022/04/17 05:55:19;;;;;;;2.40;2.20;;;23.20;49.60;;;;;;5054562;28;20434;-84
2022/04/17 05:57:46;;;;;;;2.13;1.90;;;23.20;49.70;;;;;;5039392;28;20482;-84
2022/04/17 06:00:16;;;;;;;2.57;2.37;;;23.20;49.70;;;;;;5034375;28;20486;-84
2022/04/17 06:02:44;;;;;;;2.40;2.20;;;23.20;49.70;;;;;;5034748;28;20925;-84
2022/04/17 06:05:11;;;;;;;2.63;2.37;;;23.20;49.60;;;;;;5034692;28;20521;-85
2022/04/17 06:07:40;;;;;;;2.40;2.20;;;23.20;49.70;;;;;;5034126;28;20443;-85
2022/04/17 06:10:09;;;;;;;1.93;1.83;;;23.20;49.70;;;;;;5034466;28;20466;-85
2022/04/17 06:12:37;;;;;;;1.80;1.70;;;23.20;49.70;;;;;;5034325;28;20780;-84
2022/04/17 06:15:05;;;;;;;2.43;2.23;;;23.20;49.70;;;;;;5034508;28;20435;-85
2022/04/17 06:17:37;;;;;;;2.10;1.80;;;23.20;49.70;;;;;;5034120;28;20431;-84
2022/04/17 06:20:06;;;;;;;2.50;2.30;;;23.20;49.70;;;;;;5016571;28;20482;-85
2022/04/17 06:22:34;;;;;;;2.20;2.00;;;23.20;49.60;;;;;;5034243;28;20439;-84
2022/04/17 06:25:03;;;;;;;2.47;1.70;;;23.30;49.80;;;;;;5034198;28;20489;-84
2022/04/17 06:27:37;;;;;;;2.53;2.33;;;23.20;49.70;;;;;;5034340;28;20473;-86
2022/04/17 06:30:10;;;;;;;2.23;2.03;;;23.20;49.70;;;;;;5022150;28;20458;-84
2022/04/17 06:32:37;;;;;;;2.47;2.33;;;23.20;49.70;;;;;;5014114;28;20475;-85
2022/04/17 06:35:05;;;;;;;2.30;2.10;;;23.20;49.90;;;;;;5014102;28;20447;-85
2022/04/17 06:37:32;;;;;;;2.73;2.53;;;23.20;50.20;;;;;;5014193;28;20455;-85
2022/04/17 06:39:59;;;;;;;2.80;2.60;;;23.20;49.70;;;;;;4996816;28;20472;-84
2022/04/17 06:42:27;;;;;;;2.30;2.20;;;23.20;49.70;;;;;;5014378;28;20519;-84
2022/04/17 06:44:54;;;;;;;2.20;2.00;;;23.20;49.70;;;;;;5014488;28;20440;-84
2022/04/17 06:47:20;;;;;;;2.53;2.33;;;23.20;49.60;;;;;;5014463;28;20790;-84
2022/04/17 06:49:47;;;;;;;2.40;2.20;;;23.10;49.50;;;;;;5014202;28;20444;-85
2022/04/17 06:52:14;;;;;;;3.47;3.10;;;23.10;49.50;;;;;;5019978;28;20439;-84
2022/04/17 06:54:41;;;;;;;7.93;3.90;;;23.10;48.60;;;;;;5033909;28;20447;-84
2022/04/17 06:57:08;;;;;;;5.00;4.60;;;23.00;46.60;;;;;;5043080;28;20482;-83
2022/04/17 06:59:36;;;;;;;4.70;4.30;;;22.80;45.00;;;;;;5053120;28;20442;-84
2022/04/17 07:02:04;;;;;;;5.00;4.60;;;22.60;44.90;;;;;;5053066;28;20576;-87
2022/04/17 07:04:30;;;;;;;4.87;4.47;;;22.50;44.80;;;;;;5053406;28;20438;-85
2022/04/17 07:06:57;;;;;;;8.00;4.80;;;22.40;44.50;;;;;;5053201;28;20448;-86
2022/04/17 07:09:24;;;;;;;5.83;5.03;;;22.30;44.70;;;;;;5053362;28;20456;-84
2022/04/17 07:11:51;;;;;;;6.10;4.93;;;22.20;44.50;;;;;;5052715;28;20933;-83
2022/04/17 07:14:18;;;;;;;5.60;4.80;;;22.20;44.60;;;;;;5052574;28;20449;-83
2022/04/17 07:16:47;;;;;;;4.20;3.90;;;22.20;44.90;;;;;;5053000;28;20449;-90
2022/04/17 07:19:16;;;;;;;5.30;3.83;;;22.20;45.10;;;;;;5053572;28;20855;-89
2022/04/17 07:21:42;;;;;;;4.33;3.47;;;22.20;45.80;;;;;;5053505;28;20547;-91
2022/04/17 07:24:09;;;;;;;5.00;3.97;;;22.20;46.70;;;;;;5054354;28;20928;-91
2022/04/17 07:26:36;;;;;;;5.00;4.17;;;22.30;47.10;;;;;;5053794;28;21009;-91
2022/04/17 07:29:03;;;;;;;6.67;4.07;;;22.40;45.20;;;;;;5053584;28;20442;-84
2022/04/17 07:31:30;;;;;;;4.63;4.23;;;22.40;44.80;;;;;;5053701;28;20811;-91
2022/04/17 07:33:58;;;;;;;5.07;4.63;;;22.30;44.50;;;;;;5053542;28;20450;-91
2022/04/17 07:36:25;;;;;;;5.43;4.10;;;22.30;44.50;;;;;;5053476;28;20441;-91
2022/04/17 07:38:52;;;;;;;3.60;3.30;;;22.30;44.20;;;;;;5035817;28;20441;-91
2022/04/17 07:41:19;;;;;;;3.57;3.27;;;22.30;44.50;;;;;;5053008;28;20492;-92
2022/04/17 07:43:46;;;;;;;3.50;2.90;;;22.30;44.80;;;;;;5053494;28;20441;-89
2022/04/17 07:46:13;;;;;;;3.20;2.77;;;22.40;44.80;;;;;;5053340;28;20441;-89
2022/04/17 07:48:39;;;;;;;3.53;2.73;;;22.40;45.10;;;;;;5053270;28;20532;-83
2022/04/17 07:51:07;;;;;;;3.50;2.60;;;22.50;45.40;;;;;;5052925;28;20803;-86
2022/04/17 07:53:34;;;;;;;2.60;2.40;;;22.60;45.60;;;;;;5052541;28;20449;-84
2022/04/17 07:56:02;;;;;;;2.27;2.00;;;22.50;46.00;;;;;;5052716;28;20465;-84
2022/04/17 07:58:34;;;;;;;2.83;2.13;;;22.70;46.60;;;;;;5053181;28;20793;-84
2022/04/17 08:01:10;;;;;;;1.90;1.80;;;22.50;46.40;;;;;;5052673;28;20497;-84
2022/04/17 08:03:46;;;;;;;4.23;1.80;;;22.60;46.30;;;;;;5052302;28;20503;-84
2022/04/17 08:06:17;;;;;;;2.03;1.93;;;22.60;46.60;;;;;;5052652;28;20441;-84
2022/04/17 08:08:45;;;;;;;3.23;2.30;;;22.60;46.00;;;;;;5052939;28;20469;-84
2022/04/17 08:11:13;;;;;;;3.10;2.23;;;22.60;46.20;;;;;;5036614;28;20453;-84
2022/04/17 08:13:42;;;;;;;4.07;2.60;;;22.60;46.10;;;;;;5056179;28;20440;-84
2022/04/17 08:16:09;;;;;;;2.27;2.07;;;22.60;46.30;;;;;;5056621;28;20449;-83
2022/04/17 08:18:37;;;;;;;1.90;1.80;;;22.60;46.50;;;;;;5056334;28;20854;-83
2022/04/17 08:21:04;;;;;;;1.70;1.60;;;22.70;47.80;;;;;;5056153;28;20824;-83
2022/04/17 08:23:35;;;;;;;4.63;2.10;;;22.70;47.30;;;;;;5055544;28;20441;-82
2022/04/17 08:26:02;;;;;;;2.73;2.03;;;22.70;47.30;;;;;;5055448;28;20449;-81
2022/04/17 08:28:29;;;;;;;2.93;1.80;;;22.70;47.20;;;;;;5056007;28;20917;-85
2022/04/17 08:30:56;;;;;;;2.70;1.73;;;22.80;47.20;;;;;;5055963;28;20451;-85
2022/04/17 08:33:24;;;;;;;3.20;2.10;;;22.80;47.30;;;;;;5056285;28;20484;-85
2022/04/17 08:35:51;;;;;;;3.97;2.23;;;22.90;47.40;;;;;;5052558;28;20455;-85
2022/04/17 08:38:19;;;;;;;3.13;1.90;;;22.90;47.50;;;;;;5038589;28;20823;-85
2022/04/17 08:40:48;;;;;;;2.43;1.83;;;22.90;47.60;;;;;;5055487;28;20474;-84
2022/04/17 08:43:17;;;;;;;2.43;2.00;;;23.00;47.70;;;;;;5046135;28;20453;-86
2022/04/17 08:45:45;;;;;;;2.03;1.60;;;23.00;46.30;;;;;;5035938;28;20512;-85
2022/04/17 08:48:12;;;;;;;4.43;2.33;;;23.10;46.90;;;;;;5036101;28;20494;-85
2022/04/17 08:50:39;;;;;;;4.17;1.80;;;23.10;47.50;;;;;;5036125;28;20942;-86
2022/04/17 08:53:07;;;;;;;2.43;2.23;;;23.20;47.70;;;;;;5017858;28;20489;-86
2022/04/17 08:55:34;;;;;;;2.27;1.87;;;23.20;47.90;;;;;;5035688;28;20439;-85
2022/04/17 08:58:02;;;;;;;2.77;2.03;;;23.20;48.00;;;;;;5035524;28;20470;-86
2022/04/17 09:00:29;;;;;;;2.60;1.80;;;23.30;48.20;;;;;;5038679;28;20782;-83
2022/04/17 09:02:56;;;;;;;2.07;1.87;;;23.30;48.20;;;;;;5054607;28;20518;-85
2022/04/17 09:05:23;;;;;;;1.73;1.63;;;23.40;46.40;;;;;;5049611;28;20443;-86
2022/04/17 09:07:53;;;;;;;3.03;2.13;;;23.40;45.90;;;;;;5035305;28;20447;-86
2022/04/17 09:10:28;;;;;;;2.70;2.03;;;23.40;46.20;;;;;;5035545;28;20478;-86
2022/04/17 09:12:55;;;;;;;1.90;1.70;;;23.40;47.10;;;;;;5035261;28;20438;-86
2022/04/17 09:15:29;;;;;;;2.47;1.70;;;23.40;47.60;;;;;;5035441;28;20447;-86
2022/04/17 09:17:58;;;;;;;2.10;1.43;;;23.50;47.80;;;;;;5043136;28;20446;-86
2022/04/17 09:20:26;;;;;;;2.80;1.77;;;23.50;47.90;;;;;;5042761;28;20951;-86
2022/04/17 09:22:55;;;;;;;5.70;2.10;;;23.60;48.00;;;;;;5033185;28;20501;-86
2022/04/17 09:25:24;;;;;;;3.10;1.70;;;23.60;48.00;;;;;;5033655;28;20450;-87
2022/04/17 09:27:59;;;;;;;1.50;1.30;;;23.60;48.00;;;;;;5034681;28;20490;-86
2022/04/17 09:30:29;;;;;;;2.40;2.00;;;23.70;48.20;;;;;;5034974;28;20949;-87
2022/04/17 09:32:57;;;;;;;3.00;2.03;;;23.70;48.20;;;;;;5034785;28;20454;-84
2022/04/17 09:35:24;;;;;;;2.67;1.90;;;23.70;48.30;;;;;;5034890;28;20447;-85
2022/04/17 09:37:55;;;;;;;2.03;1.83;;;23.70;48.40;;;;;;5034893;28;20439;-84
2022/04/17 09:40:23;;;;;;;1.80;1.50;;;23.80;48.60;;;;;;5035204;28;20467;-87
2022/04/17 09:42:50;;;;;;;3.47;2.07;;;23.80;48.60;;;;;;5034999;28;20533;-85
2022/04/17 09:45:17;;;;;;;1.67;1.57;;;23.80;48.70;;;;;;5034726;28;20450;-85
2022/04/17 09:47:57;;;;;;;1.80;1.67;;;23.90;48.80;;;;;;5034759;28;20447;-85
2022/04/17 09:50:32;;;;;;;1.87;1.30;;;24.00;48.90;;;;;;5034636;28;20519;-86
2022/04/17 09:53:03;;;;;;;1.90;1.60;;;24.00;49.00;;;;;;5035339;28;20458;-87
2022/04/17 09:55:31;;;;;;;3.20;1.87;;;24.00;49.00;;;;;;5034607;28;20453;-86
2022/04/17 09:57:59;;;;;;;1.90;1.40;;;24.00;49.10;;;;;;5034472;28;20589;-85
2022/04/17 10:00:29;;;;;;;2.10;1.90;;;24.10;49.30;;;;;;5034352;28;20454;-86
2022/04/17 10:02:57;;;;;;;1.83;1.67;;;24.10;49.30;;;;;;5034339;28;20486;-85
2022/04/17 10:05:24;;;;;;;1.80;1.70;;;24.10;49.40;;;;;;5034411;28;20447;-83
2022/04/17 10:07:51;;;;;;;2.43;1.73;;;24.20;49.40;;;;;;5034570;28;20439;-83
2022/04/17 10:10:18;;;;;;;1.80;1.33;;;24.20;48.30;;;;;;5034214;28;20466;-83
2022/04/17 10:12:46;;;;;;;2.07;1.50;;;24.20;47.40;;;;;;5034205;28;20435;-82
2022/04/17 10:15:14;;;;;;;2.20;1.40;;;24.10;47.60;;;;;;5034228;28;20933;-82
2022/04/17 10:17:45;;;;;;;1.73;1.23;;;24.10;47.60;;;;;;5032701;28;20538;-82
2022/04/17 10:20:14;;;;;;;1.50;1.40;;;24.10;47.70;;;;;;5034414;28;20451;-85
2022/04/17 10:22:43;;;;;;;1.70;1.50;;;24.10;48.40;;;;;;5034186;28;20488;-89
2022/04/17 10:25:12;;;;;;;2.20;1.60;;;24.10;48.80;;;;;;5034982;28;20438;-89
2022/04/17 10:27:43;;;;;;;3.80;1.50;;;24.10;48.80;;;;;;5033946;28;20438;-88
2022/04/17 10:30:15;;;;;;;1.63;1.50;;;24.10;48.20;;;;;;5034134;28;20857;-89
2022/04/17 10:33:21;;;;;;;1.40;1.30;;;24.20;47.90;;;;;;5033954;28;20451;-84
2022/04/17 10:36:07;;;;;;;2.70;1.63;;;24.20;47.70;;;;;;5033830;28;20449;-86
2022/04/17 10:38:45;;;;;;;2.00;1.40;;;24.20;48.10;;;;;;5034082;28;20431;-86
2022/04/17 10:41:13;;;;;;;1.57;1.47;;;24.10;48.10;;;;;;5034338;28;20466;-87
2022/04/17 10:43:59;;;;;;;2.70;1.57;;;24.10;48.00;;;;;;5034595;28;20848;-87
2022/04/17 10:46:26;;;;;;;3.90;1.57;;;24.20;48.50;;;;;;5033929;28;20438;-85
2022/04/17 10:48:55;;;;;;;1.43;1.33;;;24.20;47.60;;;;;;5033956;28;20441;-83
2022/04/17 10:51:26;;;;;;;2.00;1.40;;;24.20;47.30;;;;;;5033579;28;20451;-82
2022/04/17 10:54:07;;;;;;;1.80;1.43;;;24.20;47.10;;;;;;5032924;28;20450;-83
2022/04/17 10:56:35;;;;;;;1.20;1.10;;;24.20;47.30;;;;;;5032690;28;20573;-82
2022/04/17 10:59:06;;;;;;;1.47;1.13;;;24.20;47.40;;;;;;5033372;28;20446;-83
2022/04/17 11:01:56;;;;;;;2.40;1.53;;;24.20;47.60;;;;;;5033061;28;21244;-86
2022/04/17 11:04:25;;;;;;;2.13;1.30;;;24.20;47.70;;;;;;5032880;28;20465;-85
2022/04/17 11:07:19;;;;;;;1.60;1.50;;;24.20;47.50;;;;;;5033311;28;20435;-84
2022/04/17 11:09:46;;;;;;;1.57;1.30;;;24.20;47.60;;;;;;5033069;28;20468;-84
2022/04/17 11:12:27;;;;;;;1.50;1.23;;;24.10;47.60;;;;;;5033050;28;20474;-86
2022/04/17 11:14:55;;;;;;;2.20;1.30;;;24.20;47.60;;;;;;5033086;28;20525;-85
2022/04/17 11:17:23;;;;;;;1.60;1.50;;;24.10;47.50;;;;;;5033030;28;20443;-85
2022/04/17 11:19:55;;;;;;;1.57;1.47;;;24.10;47.60;;;;;;5032910;28;20446;-85
2022/04/17 11:22:28;;;;;;;1.93;1.20;;;24.10;47.60;;;;;;5034190;28;20490;-84
2022/04/17 11:25:07;;;;;;;2.07;1.50;;;24.20;47.50;;;;;;5015611;28;20449;-84
2022/04/17 11:27:41;;;;;;;1.33;1.10;;;24.20;47.50;;;;;;5033281;28;20477;-85
2022/04/17 11:30:09;;;;;;;1.50;1.33;;;24.10;47.30;;;;;;5033093;28;20453;-83
2022/04/17 11:32:51;;;;;;;2.30;1.30;;;24.10;47.30;;;;;;5033078;28;20967;-82
2022/04/17 11:35:21;;;;;;;1.27;1.07;;;24.20;47.40;;;;;;5033314;28;20451;-83
2022/04/17 11:38:07;;;;;;;1.70;1.20;;;24.10;47.30;;;;;;5033326;28;20446;-85
2022/04/17 11:40:36;;;;;;;1.57;1.30;;;24.20;47.50;;;;;;5033343;28;20463;-84
2022/04/17 11:43:11;;;;;;;1.40;1.00;;;24.10;47.40;;;;;;5033432;28;20490;-83
2022/04/17 11:45:38;;;;;;;2.13;1.20;;;24.20;47.50;;;;;;5034235;28;20438;-85
2022/04/17 11:48:08;;;;;;;1.43;1.33;;;24.10;47.30;;;;;;5037141;28;20531;-84
2022/04/17 11:50:35;;;;;;;1.47;1.10;;;24.10;47.40;;;;;;5037200;28;20438;-83
2022/04/17 11:53:05;;;;;;;2.60;1.80;;;24.10;47.30;;;;;;5036864;28;20454;-84
2022/04/17 11:55:34;;;;;;;1.73;1.20;;;24.20;47.50;;;;;;5037135;28;20803;-85
2022/04/17 11:58:01;;;;;;;1.40;1.20;;;24.10;47.20;;;;;;5036939;28;20473;-93
2022/04/17 12:00:29;;;;;;;1.67;1.50;;;24.10;47.30;;;;;;5037436;28;20449;-85
2022/04/17 12:03:01;;;;;;;1.77;1.60;;;24.20;47.70;;;;;;5036924;28;20556;-88
2022/04/17 12:05:29;;;;;;;1.40;1.20;;;24.20;47.70;;;;;;5037291;28;20446;-85
2022/04/17 12:08:04;;;;;;;2.33;1.10;;;24.20;47.90;;;;;;5036750;28;20465;-84
2022/04/17 12:10:33;;;;;;;1.60;1.40;;;24.30;48.30;;;;;;5036861;28;21011;-86
2022/04/17 12:13:12;;;;;;;1.33;1.10;;;24.30;48.40;;;;;;5036623;28;20541;-85
2022/04/17 12:15:39;;;;;;;3.17;1.80;;;24.50;48.40;;;;;;5037037;28;20496;-85
2022/04/17 12:18:06;;;;;;;2.90;1.30;;;24.40;48.30;;;;;;5036491;28;20449;-85
2022/04/17 12:20:33;;;;;;;1.50;1.10;;;24.40;48.20;;;;;;5037112;28;20497;-85
2022/04/17 12:23:00;;;;;;;1.73;1.47;;;24.40;48.10;;;;;;5036007;28;21001;-88
2022/04/17 12:25:28;;;;;;;4.53;1.33;;;24.50;48.80;;;;;;5036210;28;20474;-87
2022/04/17 12:27:56;;;;;;;2.47;1.23;;;24.50;47.50;;;;;;5036025;28;20442;-87
2022/04/17 12:30:25;;;;;;;1.20;0.97;;;24.50;47.10;;;;;;5036440;28;20474;-85
2022/04/17 12:32:55;;;;;;;1.37;1.27;;;24.50;47.50;;;;;;5017979;28;20447;-85
2022/04/17 12:35:24;;;;;;;1.70;1.53;;;24.50;47.90;;;;;;5036255;28;20447;-85
2022/04/17 12:37:51;;;;;;;1.40;1.30;;;24.50;48.00;;;;;;5035499;28;20446;-85
2022/04/17 12:40:22;;;;;;;1.50;1.40;;;24.50;48.50;;;;;;5035537;28;20458;-85
2022/04/17 12:42:50;;;;;;;1.60;1.30;;;24.50;47.90;;;;;;5035718;28;20490;-85
2022/04/17 12:45:26;;;;;;;1.40;1.10;;;24.50;47.80;;;;;;5035332;28;20443;-85
2022/04/17 12:48:04;;;;;;;1.40;1.30;;;24.70;47.80;;;;;;5035934;28;20804;-85
2022/04/17 12:50:31;;;;;;;1.63;1.47;;;24.70;47.70;;;;;;5036105;28;20438;-85
2022/04/17 12:52:58;;;;;;;2.40;1.30;;;24.70;47.70;;;;;;5037933;28;20450;-85
2022/04/17 12:55:31;;;;;;;1.50;1.07;;;24.70;48.30;;;;;;5035159;28;20439;-85
2022/04/17 12:57:58;;;;;;;1.87;1.30;;;24.70;47.80;;;;;;5051277;28;20473;-86
2022/04/17 13:00:27;;;;;;;1.57;1.03;;;24.70;47.90;;;;;;5055240;28;20472;-85
2022/04/17 13:03:10;;;;;;;1.13;1.03;;;24.80;48.10;;;;;;5055194;28;20552;-85
2022/04/17 13:05:37;;;;;;;3.50;1.20;;;24.80;48.10;;;;;;5055462;28;20515;-85
2022/04/17 13:08:06;;;;;;;1.83;1.20;;;24.80;48.20;;;;;;5055259;28;20447;-84
2022/04/17 13:10:33;;;;;;;1.40;1.10;;;24.80;48.30;;;;;;5055044;28;20462;-85
2022/04/17 13:13:00;;;;;;;1.30;1.00;;;24.80;48.40;;;;;;5055093;28;20964;-85
2022/04/17 13:15:32;;;;;;;2.07;1.20;;;24.80;48.40;;;;;;5054743;28;20446;-84